Halifax, Virginia
Current Conditions -  °F | °C
As of 9:55 AM on Tuesday 21 Oct 2014 (Local Time) from KW78 Reporting Station
Clear Clear  
Wind Chill: 59°   Ceiling: Unl
Heat Index: 59°   Visibility: 10mi
Dew Point: 52°   Wind: 0mph
Humidity: 78%   Direction: NA
Pressure: 29.93"   Gusts: NA
Location:  36.77°N, 78.93°W
Report Text: KW78 211355Z AUTO 00000KT 10SM CLR 15/11 A2993 RMK AO1 T01510112
Loading
Personal Weather Stations






























Interactive Weather Map
Tropical Storm Tracking
New forecast layout! Learn more

10-Day Weather Forecast

Advertisements
Track Severe Weather on mobile